sensor_id;sensor_type;location;lat;lon;timestamp;P1;durP1;ratioP1;P2;durP2;ratioP2
19341;SDS011;9807;48.258;12.690;2023-03-26T00:00:45;1.60;;;0.93;;
19341;SDS011;9807;48.258;12.690;2023-03-26T00:03:15;1.23;;;0.97;;
19341;SDS011;9807;48.258;12.690;2023-03-26T00:05:44;2.67;;;0.90;;
19341;SDS011;9807;48.258;12.690;2023-03-26T00:08:12;2.70;;;1.23;;
19341;SDS011;9807;48.258;12.690;2023-03-26T00:10:39;2.70;;;1.37;;
19341;SDS011;9807;48.258;12.690;2023-03-26T00:13:06;2.87;;;1.00;;
19341;SDS011;9807;48.258;12.690;2023-03-26T00:15:33;4.80;;;1.00;;
19341;SDS011;9807;48.258;12.690;2023-03-26T00:18:01;4.13;;;1.30;;
19341;SDS011;9807;48.258;12.690;2023-03-26T00:20:28;5.40;;;1.70;;
19341;SDS011;9807;48.258;12.690;2023-03-26T00:22:56;2.80;;;1.50;;
19341;SDS011;9807;48.258;12.690;2023-03-26T00:25:25;2.30;;;1.00;;
19341;SDS011;9807;48.258;12.690;2023-03-26T00:27:51;1.90;;;0.80;;
19341;SDS011;9807;48.258;12.690;2023-03-26T00:30:18;2.00;;;0.93;;
19341;SDS011;9807;48.258;12.690;2023-03-26T00:32:44;1.60;;;1.00;;
19341;SDS011;9807;48.258;12.690;2023-03-26T00:35:10;2.40;;;0.90;;
19341;SDS011;9807;48.258;12.690;2023-03-26T00:37:37;1.73;;;0.90;;
19341;SDS011;9807;48.258;12.690;2023-03-26T00:40:06;1.40;;;0.80;;
19341;SDS011;9807;48.258;12.690;2023-03-26T00:42:35;2.60;;;0.90;;
19341;SDS011;9807;48.258;12.690;2023-03-26T00:45:05;1.50;;;1.00;;
19341;SDS011;9807;48.258;12.690;2023-03-26T00:47:31;4.43;;;1.10;;
19341;SDS011;9807;48.258;12.690;2023-03-26T00:49:58;1.13;;;0.90;;
19341;SDS011;9807;48.258;12.690;2023-03-26T00:52:24;1.47;;;0.83;;
19341;SDS011;9807;48.258;12.690;2023-03-26T00:54:54;1.37;;;1.00;;
19341;SDS011;9807;48.258;12.690;2023-03-26T00:57:20;2.00;;;1.20;;
19341;SDS011;9807;48.258;12.690;2023-03-26T00:59:50;1.67;;;1.00;;
19341;SDS011;9807;48.258;12.690;2023-03-26T01:02:17;4.00;;;1.20;;
19341;SDS011;9807;48.258;12.690;2023-03-26T01:04:46;3.70;;;1.20;;
19341;SDS011;9807;48.258;12.690;2023-03-26T01:07:19;2.60;;;1.40;;
19341;SDS011;9807;48.258;12.690;2023-03-26T01:09:53;4.00;;;1.50;;
19341;SDS011;9807;48.258;12.690;2023-03-26T01:12:26;4.47;;;1.90;;
19341;SDS011;9807;48.258;12.690;2023-03-26T01:14:56;5.33;;;1.83;;
19341;SDS011;9807;48.258;12.690;2023-03-26T01:17:24;4.63;;;1.83;;
19341;SDS011;9807;48.258;12.690;2023-03-26T01:23:03;3.03;;;1.60;;
19341;SDS011;9807;48.258;12.690;2023-03-26T01:25:32;3.07;;;1.67;;
19341;SDS011;9807;48.258;12.690;2023-03-26T01:28:05;2.63;;;1.20;;
19341;SDS011;9807;48.258;12.690;2023-03-26T01:30:45;4.40;;;1.30;;
19341;SDS011;9807;48.258;12.690;2023-03-26T01:36:17;4.73;;;1.40;;
19341;SDS011;9807;48.258;12.690;2023-03-26T01:46:53;4.93;;;1.43;;
19341;SDS011;9807;48.258;12.690;2023-03-26T01:49:21;2.13;;;1.10;;
19341;SDS011;9807;48.258;12.690;2023-03-26T01:51:52;2.63;;;1.10;;
19341;SDS011;9807;48.258;12.690;2023-03-26T01:54:22;4.63;;;1.10;;
19341;SDS011;9807;48.258;12.690;2023-03-26T01:56:55;2.53;;;1.30;;
19341;SDS011;9807;48.258;12.690;2023-03-26T02:02:20;4.00;;;1.40;;
19341;SDS011;9807;48.258;12.690;2023-03-26T02:07:41;3.83;;;1.17;;
19341;SDS011;9807;48.258;12.690;2023-03-26T02:13:02;4.27;;;1.30;;
19341;SDS011;9807;48.258;12.690;2023-03-26T02:15:29;6.27;;;1.23;;
19341;SDS011;9807;48.258;12.690;2023-03-26T02:17:56;2.80;;;1.10;;
19341;SDS011;9807;48.258;12.690;2023-03-26T02:20:25;2.10;;;0.90;;
19341;SDS011;9807;48.258;12.690;2023-03-26T02:22:54;5.33;;;1.10;;
19341;SDS011;9807;48.258;12.690;2023-03-26T02:25:20;3.97;;;1.17;;
19341;SDS011;9807;48.258;12.690;2023-03-26T02:27:47;3.63;;;1.20;;
19341;SDS011;9807;48.258;12.690;2023-03-26T02:30:16;7.23;;;1.30;;
19341;SDS011;9807;48.258;12.690;2023-03-26T02:32:45;2.40;;;1.13;;
19341;SDS011;9807;48.258;12.690;2023-03-26T02:35:11;3.97;;;1.27;;
19341;SDS011;9807;48.258;12.690;2023-03-26T02:37:37;3.17;;;1.30;;
19341;SDS011;9807;48.258;12.690;2023-03-26T02:40:04;4.23;;;1.00;;
19341;SDS011;9807;48.258;12.690;2023-03-26T02:42:35;3.93;;;1.30;;
19341;SDS011;9807;48.258;12.690;2023-03-26T02:45:01;5.20;;;1.30;;
19341;SDS011;9807;48.258;12.690;2023-03-26T02:47:27;3.87;;;1.40;;
19341;SDS011;9807;48.258;12.690;2023-03-26T02:49:53;7.10;;;1.70;;
19341;SDS011;9807;48.258;12.690;2023-03-26T02:52:18;3.97;;;1.30;;
19341;SDS011;9807;48.258;12.690;2023-03-26T02:54:44;4.10;;;1.33;;
19341;SDS011;9807;48.258;12.690;2023-03-26T02:57:10;3.53;;;1.40;;
19341;SDS011;9807;48.258;12.690;2023-03-26T02:59:36;4.73;;;1.93;;
19341;SDS011;9807;48.258;12.690;2023-03-26T03:02:02;3.87;;;1.23;;
19341;SDS011;9807;48.258;12.690;2023-03-26T03:04:28;7.17;;;1.70;;
19341;SDS011;9807;48.258;12.690;2023-03-26T03:06:53;4.70;;;1.50;;
19341;SDS011;9807;48.258;12.690;2023-03-26T03:09:22;3.80;;;1.57;;
19341;SDS011;9807;48.258;12.690;2023-03-26T03:11:49;7.03;;;1.67;;
19341;SDS011;9807;48.258;12.690;2023-03-26T03:14:16;3.43;;;1.60;;
19341;SDS011;9807;48.258;12.690;2023-03-26T03:16:42;3.50;;;1.30;;
19341;SDS011;9807;48.258;12.690;2023-03-26T03:19:08;4.37;;;1.40;;
19341;SDS011;9807;48.258;12.690;2023-03-26T03:21:33;3.07;;;1.17;;
19341;SDS011;9807;48.258;12.690;2023-03-26T03:24:00;3.27;;;1.00;;
19341;SDS011;9807;48.258;12.690;2023-03-26T03:26:26;3.90;;;0.87;;
19341;SDS011;9807;48.258;12.690;2023-03-26T03:28:53;3.33;;;1.10;;
19341;SDS011;9807;48.258;12.690;2023-03-26T03:31:21;1.33;;;1.20;;
19341;SDS011;9807;48.258;12.690;2023-03-26T03:33:48;2.40;;;0.90;;
19341;SDS011;9807;48.258;12.690;2023-03-26T03:36:15;2.13;;;1.10;;
19341;SDS011;9807;48.258;12.690;2023-03-26T03:38:43;1.50;;;0.83;;
19341;SDS011;9807;48.258;12.690;2023-03-26T03:41:09;1.83;;;1.00;;
19341;SDS011;9807;48.258;12.690;2023-03-26T03:43:35;1.30;;;1.03;;
19341;SDS011;9807;48.258;12.690;2023-03-26T03:46:01;1.47;;;1.00;;
19341;SDS011;9807;48.258;12.690;2023-03-26T03:48:28;3.13;;;1.00;;
19341;SDS011;9807;48.258;12.690;2023-03-26T03:50:54;2.73;;;1.00;;
19341;SDS011;9807;48.258;12.690;2023-03-26T03:53:21;3.37;;;1.10;;
19341;SDS011;9807;48.258;12.690;2023-03-26T03:55:50;3.73;;;1.30;;
19341;SDS011;9807;48.258;12.690;2023-03-26T03:58:23;4.07;;;1.60;;
19341;SDS011;9807;48.258;12.690;2023-03-26T04:00:52;5.87;;;1.30;;
19341;SDS011;9807;48.258;12.690;2023-03-26T04:03:25;3.90;;;1.30;;
19341;SDS011;9807;48.258;12.690;2023-03-26T04:05:55;5.43;;;1.50;;
19341;SDS011;9807;48.258;12.690;2023-03-26T04:08:21;4.47;;;1.10;;
19341;SDS011;9807;48.258;12.690;2023-03-26T04:10:47;3.10;;;1.10;;
19341;SDS011;9807;48.258;12.690;2023-03-26T04:13:14;1.73;;;0.97;;
19341;SDS011;9807;48.258;12.690;2023-03-26T04:15:40;3.17;;;0.87;;
19341;SDS011;9807;48.258;12.690;2023-03-26T04:18:07;1.90;;;0.93;;
19341;SDS011;9807;48.258;12.690;2023-03-26T04:20:36;2.27;;;1.03;;
19341;SDS011;9807;48.258;12.690;2023-03-26T04:23:05;1.13;;;1.03;;
19341;SDS011;9807;48.258;12.690;2023-03-26T04:25:31;3.33;;;1.30;;
19341;SDS011;9807;48.258;12.690;2023-03-26T04:28:01;3.63;;;1.60;;
19341;SDS011;9807;48.258;12.690;2023-03-26T04:30:30;3.23;;;1.20;;
19341;SDS011;9807;48.258;12.690;2023-03-26T04:32:57;4.13;;;1.33;;
19341;SDS011;9807;48.258;12.690;2023-03-26T04:35:30;3.10;;;1.33;;
19341;SDS011;9807;48.258;12.690;2023-03-26T04:38:02;2.17;;;1.37;;
19341;SDS011;9807;48.258;12.690;2023-03-26T04:40:32;2.00;;;1.30;;
19341;SDS011;9807;48.258;12.690;2023-03-26T04:42:59;1.83;;;1.10;;
19341;SDS011;9807;48.258;12.690;2023-03-26T04:45:26;1.87;;;1.20;;
19341;SDS011;9807;48.258;12.690;2023-03-26T04:47:54;1.87;;;1.00;;
19341;SDS011;9807;48.258;12.690;2023-03-26T04:50:22;1.90;;;1.10;;
19341;SDS011;9807;48.258;12.690;2023-03-26T04:52:48;1.53;;;1.00;;
19341;SDS011;9807;48.258;12.690;2023-03-26T04:55:32;3.83;;;1.43;;
19341;SDS011;9807;48.258;12.690;2023-03-26T04:58:06;1.67;;;1.00;;
19341;SDS011;9807;48.258;12.690;2023-03-26T05:00:38;1.57;;;1.10;;
19341;SDS011;9807;48.258;12.690;2023-03-26T05:03:17;1.60;;;1.20;;
19341;SDS011;9807;48.258;12.690;2023-03-26T05:05:44;2.33;;;1.17;;
19341;SDS011;9807;48.258;12.690;2023-03-26T05:08:13;1.73;;;0.97;;
19341;SDS011;9807;48.258;12.690;2023-03-26T05:10:39;1.60;;;0.90;;
19341;SDS011;9807;48.258;12.690;2023-03-26T05:13:05;1.50;;;1.00;;
19341;SDS011;9807;48.258;12.690;2023-03-26T05:15:31;2.13;;;1.20;;
19341;SDS011;9807;48.258;12.690;2023-03-26T05:17:57;1.57;;;1.10;;
19341;SDS011;9807;48.258;12.690;2023-03-26T05:20:26;2.57;;;1.23;;
19341;SDS011;9807;48.258;12.690;2023-03-26T05:22:54;1.83;;;1.10;;
19341;SDS011;9807;48.258;12.690;2023-03-26T05:25:20;2.43;;;1.00;;
19341;SDS011;9807;48.258;12.690;2023-03-26T05:27:46;1.77;;;1.00;;
19341;SDS011;9807;48.258;12.690;2023-03-26T05:30:13;1.53;;;1.10;;
19341;SDS011;9807;48.258;12.690;2023-03-26T05:32:40;2.00;;;1.10;;
19341;SDS011;9807;48.258;12.690;2023-03-26T05:35:07;2.83;;;1.40;;
19341;SDS011;9807;48.258;12.690;2023-03-26T05:37:37;3.60;;;1.47;;
19341;SDS011;9807;48.258;12.690;2023-03-26T05:40:06;3.77;;;1.40;;
19341;SDS011;9807;48.258;12.690;2023-03-26T05:42:39;2.40;;;1.13;;
19341;SDS011;9807;48.258;12.690;2023-03-26T05:45:06;1.40;;;1.30;;
19341;SDS011;9807;48.258;12.690;2023-03-26T05:47:33;5.67;;;1.60;;
19341;SDS011;9807;48.258;12.690;2023-03-26T05:50:04;2.67;;;1.30;;
19341;SDS011;9807;48.258;12.690;2023-03-26T05:52:31;1.60;;;1.17;;
19341;SDS011;9807;48.258;12.690;2023-03-26T05:54:57;1.10;;;1.00;;
19341;SDS011;9807;48.258;12.690;2023-03-26T05:57:22;3.20;;;1.40;;
19341;SDS011;9807;48.258;12.690;2023-03-26T05:59:52;2.20;;;1.13;;
19341;SDS011;9807;48.258;12.690;2023-03-26T06:02:21;3.53;;;1.23;;
19341;SDS011;9807;48.258;12.690;2023-03-26T06:04:49;1.90;;;1.07;;
19341;SDS011;9807;48.258;12.690;2023-03-26T06:07:15;1.30;;;1.07;;
19341;SDS011;9807;48.258;12.690;2023-03-26T06:09:42;1.77;;;1.10;;
19341;SDS011;9807;48.258;12.690;2023-03-26T06:12:08;1.83;;;1.00;;
19341;SDS011;9807;48.258;12.690;2023-03-26T06:14:35;1.77;;;1.20;;
19341;SDS011;9807;48.258;12.690;2023-03-26T06:17:01;2.27;;;1.10;;
19341;SDS011;9807;48.258;12.690;2023-03-26T06:19:29;2.67;;;0.90;;
19341;SDS011;9807;48.258;12.690;2023-03-26T06:21:55;2.53;;;1.03;;
19341;SDS011;9807;48.258;12.690;2023-03-26T06:24:30;1.57;;;1.10;;
19341;SDS011;9807;48.258;12.690;2023-03-26T06:26:56;6.70;;;1.77;;
19341;SDS011;9807;48.258;12.690;2023-03-26T06:29:23;4.50;;;1.60;;
19341;SDS011;9807;48.258;12.690;2023-03-26T06:31:49;2.37;;;1.37;;
19341;SDS011;9807;48.258;12.690;2023-03-26T06:34:14;1.77;;;1.13;;
19341;SDS011;9807;48.258;12.690;2023-03-26T06:36:40;2.93;;;1.10;;
19341;SDS011;9807;48.258;12.690;2023-03-26T06:39:06;5.83;;;1.33;;
19341;SDS011;9807;48.258;12.690;2023-03-26T06:41:32;3.07;;;1.20;;
19341;SDS011;9807;48.258;12.690;2023-03-26T06:43:58;3.73;;;1.67;;
19341;SDS011;9807;48.258;12.690;2023-03-26T06:46:24;1.20;;;0.97;;
19341;SDS011;9807;48.258;12.690;2023-03-26T06:48:50;1.33;;;0.90;;
19341;SDS011;9807;48.258;12.690;2023-03-26T06:51:17;5.17;;;1.40;;
19341;SDS011;9807;48.258;12.690;2023-03-26T06:53:42;4.97;;;1.70;;
19341;SDS011;9807;48.258;12.690;2023-03-26T06:56:08;6.20;;;1.63;;
19341;SDS011;9807;48.258;12.690;2023-03-26T06:58:35;4.50;;;1.60;;
19341;SDS011;9807;48.258;12.690;2023-03-26T07:01:01;5.47;;;1.73;;
19341;SDS011;9807;48.258;12.690;2023-03-26T07:03:27;4.83;;;1.60;;
19341;SDS011;9807;48.258;12.690;2023-03-26T07:05:53;4.67;;;1.73;;
19341;SDS011;9807;48.258;12.690;2023-03-26T07:08:19;3.40;;;1.30;;
19341;SDS011;9807;48.258;12.690;2023-03-26T07:10:45;5.37;;;1.63;;
19341;SDS011;9807;48.258;12.690;2023-03-26T07:13:11;1.93;;;1.00;;
19341;SDS011;9807;48.258;12.690;2023-03-26T07:15:37;2.67;;;1.27;;
19341;SDS011;9807;48.258;12.690;2023-03-26T07:18:03;1.30;;;1.10;;
19341;SDS011;9807;48.258;12.690;2023-03-26T07:20:29;3.10;;;1.47;;
19341;SDS011;9807;48.258;12.690;2023-03-26T07:22:55;3.83;;;1.70;;
19341;SDS011;9807;48.258;12.690;2023-03-26T07:25:21;3.60;;;1.30;;
19341;SDS011;9807;48.258;12.690;2023-03-26T07:28:01;6.83;;;1.70;;
19341;SDS011;9807;48.258;12.690;2023-03-26T07:46:52;3.90;;;1.30;;
19341;SDS011;9807;48.258;12.690;2023-03-26T07:49:18;4.90;;;1.80;;
19341;SDS011;9807;48.258;12.690;2023-03-26T07:51:45;7.20;;;1.90;;
19341;SDS011;9807;48.258;12.690;2023-03-26T07:54:12;2.97;;;1.70;;
19341;SDS011;9807;48.258;12.690;2023-03-26T07:56:45;6.80;;;1.83;;
19341;SDS011;9807;48.258;12.690;2023-03-26T08:16:06;5.67;;;2.10;;
19341;SDS011;9807;48.258;12.690;2023-03-26T08:19:12;4.00;;;1.70;;
19341;SDS011;9807;48.258;12.690;2023-03-26T08:22:01;7.10;;;1.70;;
19341;SDS011;9807;48.258;12.690;2023-03-26T08:27:42;3.53;;;2.00;;
19341;SDS011;9807;48.258;12.690;2023-03-26T08:30:22;4.50;;;1.80;;
19341;SDS011;9807;48.258;12.690;2023-03-26T08:33:24;3.57;;;1.87;;
19341;SDS011;9807;48.258;12.690;2023-03-26T08:35:44;3.27;;;1.40;;
19341;SDS011;9807;48.258;12.690;2023-03-26T08:38:13;6.33;;;1.70;;
19341;SDS011;9807;48.258;12.690;2023-03-26T08:57:35;2.83;;;1.20;;
19341;SDS011;9807;48.258;12.690;2023-03-26T09:11:21;6.00;;;1.30;;
19341;SDS011;9807;48.258;12.690;2023-03-26T09:28:17;6.33;;;1.30;;
19341;SDS011;9807;48.258;12.690;2023-03-26T09:30:55;5.63;;;1.60;;
19341;SDS011;9807;48.258;12.690;2023-03-26T09:44:35;6.23;;;1.50;;
19341;SDS011;9807;48.258;12.690;2023-03-26T09:50:15;10.73;;;2.00;;
19341;SDS011;9807;48.258;12.690;2023-03-26T09:53:17;4.20;;;1.50;;
19341;SDS011;9807;48.258;12.690;2023-03-26T09:56:11;4.43;;;1.50;;
19341;SDS011;9807;48.258;12.690;2023-03-26T09:59:05;7.50;;;1.80;;
19341;SDS011;9807;48.258;12.690;2023-03-26T10:07:46;5.57;;;1.50;;
19341;SDS011;9807;48.258;12.690;2023-03-26T10:13:07;5.90;;;1.90;;
19341;SDS011;9807;48.258;12.690;2023-03-26T10:15:56;6.67;;;1.70;;
19341;SDS011;9807;48.258;12.690;2023-03-26T10:24:11;7.53;;;1.63;;
19341;SDS011;9807;48.258;12.690;2023-03-26T10:26:56;4.03;;;1.47;;
19341;SDS011;9807;48.258;12.690;2023-03-26T10:44:03;7.23;;;2.13;;
19341;SDS011;9807;48.258;12.690;2023-03-26T10:46:54;5.00;;;2.50;;
19341;SDS011;9807;48.258;12.690;2023-03-26T10:52:57;4.93;;;1.90;;
19341;SDS011;9807;48.258;12.690;2023-03-26T10:55:39;5.17;;;2.13;;
19341;SDS011;9807;48.258;12.690;2023-03-26T10:58:20;5.20;;;1.90;;
19341;SDS011;9807;48.258;12.690;2023-03-26T11:01:00;4.70;;;1.30;;
19341;SDS011;9807;48.258;12.690;2023-03-26T11:20:23;9.33;;;2.00;;
19341;SDS011;9807;48.258;12.690;2023-03-26T11:23:15;6.37;;;2.20;;
19341;SDS011;9807;48.258;12.690;2023-03-26T11:26:15;4.77;;;1.60;;
19341;SDS011;9807;48.258;12.690;2023-03-26T11:31:28;10.27;;;2.20;;
19341;SDS011;9807;48.258;12.690;2023-03-26T11:34:03;4.00;;;1.83;;
19341;SDS011;9807;48.258;12.690;2023-03-26T11:36:39;4.93;;;1.80;;
19341;SDS011;9807;48.258;12.690;2023-03-26T11:39:11;5.17;;;1.60;;
19341;SDS011;9807;48.258;12.690;2023-03-26T11:41:43;5.03;;;2.67;;
19341;SDS011;9807;48.258;12.690;2023-03-26T11:44:20;5.13;;;1.87;;
19341;SDS011;9807;48.258;12.690;2023-03-26T11:46:48;3.97;;;1.60;;
19341;SDS011;9807;48.258;12.690;2023-03-26T11:49:22;6.37;;;2.00;;
19341;SDS011;9807;48.258;12.690;2023-03-26T11:51:50;3.03;;;1.67;;
19341;SDS011;9807;48.258;12.690;2023-03-26T11:54:19;3.80;;;1.83;;
19341;SDS011;9807;48.258;12.690;2023-03-26T11:56:49;3.17;;;1.80;;
19341;SDS011;9807;48.258;12.690;2023-03-26T12:04:42;7.20;;;2.73;;
19341;SDS011;9807;48.258;12.690;2023-03-26T12:07:20;4.57;;;1.80;;
19341;SDS011;9807;48.258;12.690;2023-03-26T12:09:57;7.23;;;2.30;;
19341;SDS011;9807;48.258;12.690;2023-03-26T12:12:29;6.10;;;2.23;;
19341;SDS011;9807;48.258;12.690;2023-03-26T12:15:15;9.97;;;2.93;;
19341;SDS011;9807;48.258;12.690;2023-03-26T12:17:43;6.20;;;2.23;;
19341;SDS011;9807;48.258;12.690;2023-03-26T12:20:25;7.70;;;3.43;;
19341;SDS011;9807;48.258;12.690;2023-03-26T12:22:57;10.00;;;3.20;;
19341;SDS011;9807;48.258;12.690;2023-03-26T12:25:27;5.93;;;1.70;;
19341;SDS011;9807;48.258;12.690;2023-03-26T12:30:50;3.70;;;1.70;;
19341;SDS011;9807;48.258;12.690;2023-03-26T12:33:29;3.10;;;1.37;;
19341;SDS011;9807;48.258;12.690;2023-03-26T12:35:58;4.03;;;1.40;;
19341;SDS011;9807;48.258;12.690;2023-03-26T12:38:40;3.27;;;1.13;;
19341;SDS011;9807;48.258;12.690;2023-03-26T12:41:17;3.47;;;1.33;;
19341;SDS011;9807;48.258;12.690;2023-03-26T12:43:48;7.50;;;2.13;;
19341;SDS011;9807;48.258;12.690;2023-03-26T12:46:21;3.13;;;1.57;;
19341;SDS011;9807;48.258;12.690;2023-03-26T12:48:59;5.27;;;1.60;;
19341;SDS011;9807;48.258;12.690;2023-03-26T12:57:19;6.17;;;1.27;;
19341;SDS011;9807;48.258;12.690;2023-03-26T13:11:35;3.43;;;1.10;;
19341;SDS011;9807;48.258;12.690;2023-03-26T13:38:33;1.43;;;1.10;;
19341;SDS011;9807;48.258;12.690;2023-03-26T13:47:13;3.10;;;1.27;;
19341;SDS011;9807;48.258;12.690;2023-03-26T13:49:47;2.37;;;1.23;;
19341;SDS011;9807;48.258;12.690;2023-03-26T14:06:39;2.53;;;1.40;;
19341;SDS011;9807;48.258;12.690;2023-03-26T14:09:21;3.33;;;1.30;;
19341;SDS011;9807;48.258;12.690;2023-03-26T14:12:17;4.83;;;1.40;;
19341;SDS011;9807;48.258;12.690;2023-03-26T14:17:23;3.33;;;1.73;;
19341;SDS011;9807;48.258;12.690;2023-03-26T14:20:00;3.17;;;1.13;;
19341;SDS011;9807;48.258;12.690;2023-03-26T14:31:48;2.93;;;1.30;;
19341;SDS011;9807;48.258;12.690;2023-03-26T14:41:51;4.27;;;1.60;;
19341;SDS011;9807;48.258;12.690;2023-03-26T14:47:14;2.73;;;1.57;;
19341;SDS011;9807;48.258;12.690;2023-03-26T14:52:50;3.00;;;1.87;;
19341;SDS011;9807;48.258;12.690;2023-03-26T14:58:47;2.53;;;1.13;;
19341;SDS011;9807;48.258;12.690;2023-03-26T15:27:51;1.20;;;1.10;;
19341;SDS011;9807;48.258;12.690;2023-03-26T15:36:54;2.07;;;1.13;;
19341;SDS011;9807;48.258;12.690;2023-03-26T15:45:20;3.03;;;1.30;;
19341;SDS011;9807;48.258;12.690;2023-03-26T15:53:53;1.77;;;1.10;;
19341;SDS011;9807;48.258;12.690;2023-03-26T16:02:40;0.93;;;0.80;;
19341;SDS011;9807;48.258;12.690;2023-03-26T16:14:21;2.13;;;0.80;;
19341;SDS011;9807;48.258;12.690;2023-03-26T16:17:10;1.33;;;0.80;;
19341;SDS011;9807;48.258;12.690;2023-03-26T16:19:48;0.70;;;0.70;;
19341;SDS011;9807;48.258;12.690;2023-03-26T16:22:40;1.47;;;1.00;;
19341;SDS011;9807;48.258;12.690;2023-03-26T16:25:30;1.00;;;0.77;;
19341;SDS011;9807;48.258;12.690;2023-03-26T16:31:03;1.30;;;1.20;;
19341;SDS011;9807;48.258;12.690;2023-03-26T16:36:45;1.37;;;0.90;;
19341;SDS011;9807;48.258;12.690;2023-03-26T16:41:59;1.40;;;1.30;;
19341;SDS011;9807;48.258;12.690;2023-03-26T16:47:39;5.33;;;3.43;;
19341;SDS011;9807;48.258;12.690;2023-03-26T16:50:30;5.90;;;3.27;;
19341;SDS011;9807;48.258;12.690;2023-03-26T17:01:45;7.83;;;4.50;;
19341;SDS011;9807;48.258;12.690;2023-03-26T17:04:19;4.63;;;3.13;;
19341;SDS011;9807;48.258;12.690;2023-03-26T17:20:41;4.80;;;3.30;;
19341;SDS011;9807;48.258;12.690;2023-03-26T17:23:49;5.00;;;2.97;;
19341;SDS011;9807;48.258;12.690;2023-03-26T17:42:36;4.10;;;2.40;;
19341;SDS011;9807;48.258;12.690;2023-03-26T17:45:02;3.13;;;2.20;;
19341;SDS011;9807;48.258;12.690;2023-03-26T17:47:33;4.13;;;2.00;;
19341;SDS011;9807;48.258;12.690;2023-03-26T17:53:04;3.40;;;2.40;;
19341;SDS011;9807;48.258;12.690;2023-03-26T17:55:36;2.47;;;2.00;;
19341;SDS011;9807;48.258;12.690;2023-03-26T17:58:04;3.77;;;2.30;;
19341;SDS011;9807;48.258;12.690;2023-03-26T18:00:41;2.30;;;2.10;;
19341;SDS011;9807;48.258;12.690;2023-03-26T18:03:19;2.00;;;1.80;;
19341;SDS011;9807;48.258;12.690;2023-03-26T18:05:53;2.37;;;1.90;;
19341;SDS011;9807;48.258;12.690;2023-03-26T18:08:30;3.30;;;1.80;;
19341;SDS011;9807;48.258;12.690;2023-03-26T18:16:52;3.00;;;1.90;;
19341;SDS011;9807;48.258;12.690;2023-03-26T18:19:21;3.07;;;1.80;;
19341;SDS011;9807;48.258;12.690;2023-03-26T18:21:49;1.90;;;1.80;;
19341;SDS011;9807;48.258;12.690;2023-03-26T18:24:20;2.33;;;2.00;;
19341;SDS011;9807;48.258;12.690;2023-03-26T18:26:57;2.73;;;1.90;;
19341;SDS011;9807;48.258;12.690;2023-03-26T18:29:34;2.07;;;1.73;;
19341;SDS011;9807;48.258;12.690;2023-03-26T18:34:37;3.30;;;2.00;;
19341;SDS011;9807;48.258;12.690;2023-03-26T18:39:55;2.67;;;2.17;;
19341;SDS011;9807;48.258;12.690;2023-03-26T18:42:24;3.17;;;2.30;;
19341;SDS011;9807;48.258;12.690;2023-03-26T18:44:52;4.57;;;2.60;;
19341;SDS011;9807;48.258;12.690;2023-03-26T18:47:22;2.50;;;2.17;;
19341;SDS011;9807;48.258;12.690;2023-03-26T18:49:48;2.83;;;2.10;;
19341;SDS011;9807;48.258;12.690;2023-03-26T18:52:21;3.73;;;2.70;;
19341;SDS011;9807;48.258;12.690;2023-03-26T18:54:49;5.00;;;3.37;;
19341;SDS011;9807;48.258;12.690;2023-03-26T18:57:21;2.97;;;2.60;;
19341;SDS011;9807;48.258;12.690;2023-03-26T18:59:54;5.30;;;3.70;;
19341;SDS011;9807;48.258;12.690;2023-03-26T19:02:32;6.17;;;3.27;;
19341;SDS011;9807;48.258;12.690;2023-03-26T19:04:58;6.90;;;3.73;;
19341;SDS011;9807;48.258;12.690;2023-03-26T19:07:27;3.70;;;2.03;;
19341;SDS011;9807;48.258;12.690;2023-03-26T19:09:54;3.90;;;2.10;;
19341;SDS011;9807;48.258;12.690;2023-03-26T19:17:21;2.53;;;1.30;;
19341;SDS011;9807;48.258;12.690;2023-03-26T19:19:53;1.73;;;1.20;;
19341;SDS011;9807;48.258;12.690;2023-03-26T19:22:20;2.07;;;1.13;;
19341;SDS011;9807;48.258;12.690;2023-03-26T19:24:47;2.23;;;1.00;;
19341;SDS011;9807;48.258;12.690;2023-03-26T19:27:21;1.80;;;1.23;;
19341;SDS011;9807;48.258;12.690;2023-03-26T19:29:53;2.60;;;1.00;;
19341;SDS011;9807;48.258;12.690;2023-03-26T19:32:20;1.47;;;0.97;;
19341;SDS011;9807;48.258;12.690;2023-03-26T19:34:57;1.43;;;0.87;;
19341;SDS011;9807;48.258;12.690;2023-03-26T19:37:25;0.87;;;0.80;;
19341;SDS011;9807;48.258;12.690;2023-03-26T19:42:40;2.43;;;0.93;;
19341;SDS011;9807;48.258;12.690;2023-03-26T19:45:08;2.83;;;0.83;;
19341;SDS011;9807;48.258;12.690;2023-03-26T19:47:40;3.97;;;0.77;;
19341;SDS011;9807;48.258;12.690;2023-03-26T19:50:28;0.70;;;0.70;;
19341;SDS011;9807;48.258;12.690;2023-03-26T19:53:04;0.87;;;0.60;;
19341;SDS011;9807;48.258;12.690;2023-03-26T19:55:31;0.80;;;0.70;;
19341;SDS011;9807;48.258;12.690;2023-03-26T19:57:57;0.93;;;0.60;;
19341;SDS011;9807;48.258;12.690;2023-03-26T20:00:23;0.53;;;0.53;;
19341;SDS011;9807;48.258;12.690;2023-03-26T20:02:49;1.13;;;0.60;;
19341;SDS011;9807;48.258;12.690;2023-03-26T20:05:21;1.53;;;0.70;;
19341;SDS011;9807;48.258;12.690;2023-03-26T20:07:56;1.73;;;0.80;;
19341;SDS011;9807;48.258;12.690;2023-03-26T20:10:24;1.30;;;0.93;;
19341;SDS011;9807;48.258;12.690;2023-03-26T20:12:50;1.23;;;0.90;;
19341;SDS011;9807;48.258;12.690;2023-03-26T20:15:20;1.03;;;0.60;;
19341;SDS011;9807;48.258;12.690;2023-03-26T20:17:47;1.27;;;0.73;;
19341;SDS011;9807;48.258;12.690;2023-03-26T20:20:16;0.73;;;0.67;;
19341;SDS011;9807;48.258;12.690;2023-03-26T20:22:43;1.87;;;0.63;;
19341;SDS011;9807;48.258;12.690;2023-03-26T20:27:46;0.60;;;0.60;;
19341;SDS011;9807;48.258;12.690;2023-03-26T20:30:13;0.80;;;0.60;;
19341;SDS011;9807;48.258;12.690;2023-03-26T20:32:40;0.60;;;0.60;;
19341;SDS011;9807;48.258;12.690;2023-03-26T20:35:16;3.00;;;0.40;;
19341;SDS011;9807;48.258;12.690;2023-03-26T20:37:47;1.30;;;0.50;;
19341;SDS011;9807;48.258;12.690;2023-03-26T20:40:14;0.50;;;0.50;;
19341;SDS011;9807;48.258;12.690;2023-03-26T20:42:40;0.70;;;0.50;;
19341;SDS011;9807;48.258;12.690;2023-03-26T20:45:26;0.50;;;0.50;;
19341;SDS011;9807;48.258;12.690;2023-03-26T20:47:52;2.63;;;0.70;;
19341;SDS011;9807;48.258;12.690;2023-03-26T20:50:19;1.93;;;0.70;;
19341;SDS011;9807;48.258;12.690;2023-03-26T20:52:47;0.60;;;0.60;;
19341;SDS011;9807;48.258;12.690;2023-03-26T20:55:15;1.90;;;0.67;;
19341;SDS011;9807;48.258;12.690;2023-03-26T20:57:42;1.13;;;0.70;;
19341;SDS011;9807;48.258;12.690;2023-03-26T21:00:10;1.03;;;0.60;;
19341;SDS011;9807;48.258;12.690;2023-03-26T21:02:50;3.37;;;0.90;;
19341;SDS011;9807;48.258;12.690;2023-03-26T21:05:17;2.83;;;0.60;;
19341;SDS011;9807;48.258;12.690;2023-03-26T21:07:51;2.60;;;0.80;;
19341;SDS011;9807;48.258;12.690;2023-03-26T21:10:19;0.70;;;0.70;;
19341;SDS011;9807;48.258;12.690;2023-03-26T21:12:47;1.13;;;0.90;;
19341;SDS011;9807;48.258;12.690;2023-03-26T21:15:19;0.57;;;0.57;;
19341;SDS011;9807;48.258;12.690;2023-03-26T21:17:47;1.27;;;0.77;;
19341;SDS011;9807;48.258;12.690;2023-03-26T21:20:14;1.30;;;0.80;;
19341;SDS011;9807;48.258;12.690;2023-03-26T21:30:35;2.70;;;1.10;;
19341;SDS011;9807;48.258;12.690;2023-03-26T21:33:01;4.20;;;1.27;;
19341;SDS011;9807;48.258;12.690;2023-03-26T21:35:31;3.07;;;1.43;;
19341;SDS011;9807;48.258;12.690;2023-03-26T21:38:13;4.20;;;1.93;;
19341;SDS011;9807;48.258;12.690;2023-03-26T21:40:49;3.93;;;1.97;;
19341;SDS011;9807;48.258;12.690;2023-03-26T21:43:19;5.80;;;2.40;;
19341;SDS011;9807;48.258;12.690;2023-03-26T21:45:49;6.00;;;1.83;;
19341;SDS011;9807;48.258;12.690;2023-03-26T21:48:18;3.33;;;1.43;;
19341;SDS011;9807;48.258;12.690;2023-03-26T21:50:47;3.27;;;1.30;;
19341;SDS011;9807;48.258;12.690;2023-03-26T21:53:16;1.87;;;1.20;;
19341;SDS011;9807;48.258;12.690;2023-03-26T21:56:06;2.97;;;1.17;;
19341;SDS011;9807;48.258;12.690;2023-03-26T22:01:16;2.73;;;0.90;;
19341;SDS011;9807;48.258;12.690;2023-03-26T22:04:05;3.33;;;1.10;;